Time,TemperatureF,DewpointF,PressureIn,WindDirection,WindDirectionDegrees,WindSpeedMPH,WindSpeedGustMPH,Humidity,HourlyPrecipIn,Conditions,Clouds,dailyrainin,SoftwareType,DateUTC
2013-04-26 00:08:00,73.1,63.0,30.11,SSW,194,3.0,5.0,71,0.00,,,0.00,weatherlink.com 1.10,2013-04-26 04:08:00,
2013-04-26 00:23:00,72.8,63.0,30.11,SW,218,2.0,5.0,72,0.00,,,0.00,weatherlink.com 1.10,2013-04-26 04:23:00,
2013-04-26 00:38:00,72.7,64.0,30.10,SW,225,3.0,6.0,73,0.00,,,0.00,weatherlink.com 1.10,2013-04-26 04:38:00,
2013-04-26 00:53:00,72.6,63.0,30.10,WSW,250,3.0,5.0,73,0.00,,,0.00,weatherlink.com 1.10,2013-04-26 04:53:00,
2013-04-26 01:08:00,72.3,64.0,30.10,SW,228,2.0,6.0,74,0.00,,,0.00,weatherlink.com 1.10,2013-04-26 05:08:00,
2013-04-26 01:24:00,72.1,63.0,30.10,WSW,245,3.0,5.0,74,0.00,,,0.00,weatherlink.com 1.10,2013-04-26 05:24:00,
2013-04-26 01:39:00,71.8,64.0,30.09,SW,215,3.0,5.0,75,0.00,,,0.00,weatherlink.com 1.10,2013-04-26 05:39:00,
2013-04-26 01:54:00,71.6,64.0,30.08,WSW,240,2.0,5.0,76,0.00,,,0.00,weatherlink.com 1.10,2013-04-26 05:54:00,
2013-04-26 02:09:00,71.5,64.0,30.08,SW,232,2.0,4.0,77,0.00,,,0.00,weatherlink.com 1.10,2013-04-26 06:09:00,
2013-04-26 02:24:00,71.3,64.0,30.08,WSW,250,1.0,3.0,77,0.00,,,0.00,weatherlink.com 1.10,2013-04-26 06:24:00,
2013-04-26 02:39:00,71.1,64.0,30.07,WSW,249,3.0,4.0,78,0.00,,,0.00,weatherlink.com 1.10,2013-04-26 06:39:00,
2013-04-26 02:54:00,70.9,64.0,30.07,WSW,239,1.0,3.0,79,0.00,,,0.00,weatherlink.com 1.10,2013-04-26 06:54:00,
2013-04-26 03:09:00,70.1,64.0,30.07,WNW,284,2.0,2.0,80,0.00,,,0.00,weatherlink.com 1.10,2013-04-26 07:09:00,
2013-04-26 03:24:00,70.2,63.0,30.06,West,259,4.0,6.0,79,0.00,,,0.00,weatherlink.com 1.10,2013-04-26 07:24:00,
2013-04-26 03:39:00,70.0,64.0,30.06,WSW,245,3.0,5.0,80,0.00,,,0.00,weatherlink.com 1.10,2013-04-26 07:39:00,
2013-04-26 03:54:00,69.9,64.0,30.06,WSW,250,3.0,4.0,81,0.00,,,0.00,weatherlink.com 1.10,2013-04-26 07:54:00,
2013-04-26 04:09:00,69.7,64.0,30.06,West,271,0.0,3.0,81,0.00,,,0.00,weatherlink.com 1.10,2013-04-26 08:09:00,
2013-04-26 04:24:00,69.3,64.0,30.06,WSW,257,0.0,3.0,82,0.00,,,0.00,weatherlink.com 1.10,2013-04-26 08:24:00,
2013-04-26 04:39:00,69.0,63.0,30.06,West,278,0.0,0.0,82,0.00,,,0.00,weatherlink.com 1.10,2013-04-26 08:39:00,
2013-04-26 04:54:00,68.8,63.0,30.06,WSW,257,0.0,0.0,82,0.00,,,0.00,weatherlink.com 1.10,2013-04-26 08:54:00,
2013-04-26 05:10:00,68.3,63.0,30.06,WSW,257,0.0,0.0,83,0.00,,,0.00,weatherlink.com 1.10,2013-04-26 09:10:00,
2013-04-26 05:24:00,68.3,63.0,30.06,WSW,257,0.0,0.0,84,0.00,,,0.00,weatherlink.com 1.10,2013-04-26 09:24:00,
2013-04-26 05:39:00,68.0,63.0,30.06,WSW,257,0.0,0.0,85,0.00,,,0.00,weatherlink.com 1.10,2013-04-26 09:39:00,
2013-04-26 05:54:00,68.0,64.0,30.07,West,259,0.0,0.0,86,0.00,,,0.00,weatherlink.com 1.10,2013-04-26 09:54:00,
2013-04-26 06:09:00,67.7,63.0,30.06,WSW,257,0.0,0.0,85,0.00,,,0.00,weatherlink.com 1.10,2013-04-26 10:09:00,
2013-04-26 06:24:00,67.6,63.0,30.07,West,259,0.0,0.0,86,0.00,,,0.00,weatherlink.com 1.10,2013-04-26 10:24:00,
2013-04-26 06:39:00,67.6,63.0,30.07,West,259,0.0,0.0,86,0.00,,,0.00,weatherlink.com 1.10,2013-04-26 10:39:00,
2013-04-26 06:54:00,67.6,63.0,30.08,WNW,282,0.0,0.0,86,0.00,,,0.00,weatherlink.com 1.10,2013-04-26 10:54:00,
2013-04-26 07:10:00,68.0,64.0,30.09,West,277,0.0,0.0,87,0.00,,,0.00,weatherlink.com 1.10,2013-04-26 11:10:00,
2013-04-26 07:26:00,68.3,64.0,30.09,WNW,300,0.0,0.0,86,0.00,,,0.00,weatherlink.com 1.10,2013-04-26 11:26:00,
2013-04-26 07:40:00,68.8,65.0,30.10,WNW,287,0.0,0.0,86,0.00,,,0.00,weatherlink.com 1.10,2013-04-26 11:40:00,
2013-04-26 07:55:00,69.9,65.0,30.10,WSW,242,0.0,0.0,83,0.00,,,0.00,weatherlink.com 1.10,2013-04-26 11:55:00,
2013-04-26 08:11:00,70.8,65.0,30.11,WNW,295,2.0,3.0,82,0.00,,,0.00,weatherlink.com 1.10,2013-04-26 12:11:00,
2013-04-26 08:25:00,71.8,65.0,30.11,SW,226,2.0,3.0,79,0.00,,,0.00,weatherlink.com 1.10,2013-04-26 12:25:00,
2013-04-26 08:40:00,73.0,65.0,30.11,WSW,252,1.0,2.0,77,0.00,,,0.00,weatherlink.com 1.10,2013-04-26 12:40:00,
2013-04-26 08:56:00,74.0,64.0,30.12,WSW,242,2.0,3.0,72,0.00,,,0.00,weatherlink.com 1.10,2013-04-26 12:56:00,
2013-04-26 09:11:00,74.8,65.0,30.12,SSW,205,0.0,3.0,71,0.00,,,0.00,weatherlink.com 1.10,2013-04-26 13:11:00,
2013-04-26 09:26:00,76.6,65.0,30.13,SSE,160,2.0,3.0,67,0.00,,,0.00,weatherlink.com 1.10,2013-04-26 13:26:00,
2013-04-26 09:41:00,77.9,64.0,30.13,SSW,197,2.0,4.0,63,0.00,,,0.00,weatherlink.com 1.10,2013-04-26 13:41:00,
2013-04-26 09:56:00,77.7,65.0,30.14,NW,307,0.0,3.0,64,0.00,,,0.00,weatherlink.com 1.10,2013-04-26 13:56:00,
2013-04-26 10:17:00,77.5,63.0,30.14,NNE,23,2.0,5.0,61,0.00,,,0.00,weatherlink.com 1.10,2013-04-26 14:17:00,
2013-04-26 10:28:00,77.5,63.0,30.14,NNE,27,2.0,7.0,61,0.00,,,0.00,weatherlink.com 1.10,2013-04-26 14:28:00,
2013-04-26 10:43:00,78.3,63.0,30.15,ENE,62,8.0,8.0,60,0.00,,,0.00,weatherlink.com 1.10,2013-04-26 14:43:00,
2013-04-26 10:57:00,78.2,63.0,30.15,NE,51,2.0,6.0,60,0.00,,,0.00,weatherlink.com 1.10,2013-04-26 14:57:00,
2013-04-26 11:12:00,78.7,63.0,30.15,ESE,116,5.0,8.0,58,0.00,,,0.00,weatherlink.com 1.10,2013-04-26 15:12:00,
2013-04-26 11:28:00,79.5,65.0,30.15,ENE,66,5.0,8.0,61,0.00,,,0.00,weatherlink.com 1.10,2013-04-26 15:28:00,
2013-04-26 11:43:00,79.6,63.0,30.14,ENE,64,6.0,11.0,58,0.00,,,0.00,weatherlink.com 1.10,2013-04-26 15:43:00,
2013-04-26 11:58:00,79.6,63.0,30.14,NNE,27,5.0,9.0,58,0.00,,,0.00,weatherlink.com 1.10,2013-04-26 15:58:00,
2013-04-26 12:13:00,79.8,63.0,30.14,ENE,71,7.0,11.0,57,0.00,,,0.00,weatherlink.com 1.10,2013-04-26 16:13:00,
2013-04-26 12:29:00,81.8,63.0,30.14,SE,127,4.0,9.0,54,0.00,,,0.00,weatherlink.com 1.10,2013-04-26 16:29:00,
2013-04-26 12:42:00,82.2,64.0,30.13,West,281,2.0,10.0,55,0.00,,,0.00,weatherlink.com 1.10,2013-04-26 16:42:00,
2013-04-26 12:58:00,82.6,63.0,30.13,ENE,70,8.0,10.0,52,0.00,,,0.00,weatherlink.com 1.10,2013-04-26 16:58:00,
2013-04-26 13:14:00,82.7,64.0,30.12,ENE,72,4.0,10.0,54,0.00,,,0.00,weatherlink.com 1.10,2013-04-26 17:14:00,
2013-04-26 13:28:00,82.7,63.0,30.12,North,350,1.0,12.0,52,0.00,,,0.00,weatherlink.com 1.10,2013-04-26 17:28:00,
2013-04-26 13:43:00,82.8,65.0,30.12,SSE,160,6.0,11.0,55,0.00,,,0.00,weatherlink.com 1.10,2013-04-26 17:43:00,
2013-04-26 13:59:00,83.3,63.0,30.11,NE,34,6.0,11.0,51,0.00,,,0.00,weatherlink.com 1.10,2013-04-26 17:59:00,
2013-04-26 14:14:00,83.1,62.0,30.11,ENE,75,8.0,15.0,49,0.00,,,0.00,weatherlink.com 1.10,2013-04-26 18:14:00,
2013-04-26 14:30:00,83.9,62.0,30.10,ENE,76,7.0,10.0,48,0.00,,,0.00,weatherlink.com 1.10,2013-04-26 18:30:00,
2013-04-26 14:45:00,84.1,62.0,30.10,NE,47,9.0,13.0,47,0.00,,,0.00,weatherlink.com 1.10,2013-04-26 18:45:00,
2013-04-26 15:00:00,84.8,62.0,30.09,ENE,65,9.0,10.0,46,0.00,,,0.00,weatherlink.com 1.10,2013-04-26 19:00:00,
2013-04-26 15:15:00,85.7,63.0,30.09,ESE,121,5.0,12.0,46,0.00,,,0.00,weatherlink.com 1.10,2013-04-26 19:15:00,
2013-04-26 15:30:00,85.6,63.0,30.08,ENE,68,12.0,13.0,47,0.00,,,0.00,weatherlink.com 1.10,2013-04-26 19:30:00,
2013-04-26 15:48:00,85.4,63.0,30.08,SE,125,5.0,12.0,47,0.00,,,0.00,weatherlink.com 1.10,2013-04-26 19:48:00,
2013-04-26 16:01:00,84.5,63.0,30.07,East,94,5.0,12.0,48,0.00,,,0.00,weatherlink.com 1.10,2013-04-26 20:01:00,
2013-04-26 16:16:00,85.3,62.0,30.07,ENE,77,5.0,9.0,46,0.00,,,0.00,weatherlink.com 1.10,2013-04-26 20:16:00,
2013-04-26 16:31:00,85.5,62.0,30.07,East,80,3.0,9.0,45,0.00,,,0.00,weatherlink.com 1.10,2013-04-26 20:31:00,
2013-04-26 16:45:00,86.0,62.0,30.07,SE,131,5.0,12.0,45,0.00,,,0.00,weatherlink.com 1.10,2013-04-26 20:45:00,
2013-04-26 17:01:00,85.1,63.0,30.07,East,96,6.0,13.0,48,0.00,,,0.00,weatherlink.com 1.10,2013-04-26 21:01:00,
2013-04-26 17:16:00,84.9,62.0,30.06,ENE,77,6.0,11.0,47,0.00,,,0.00,weatherlink.com 1.10,2013-04-26 21:16:00,
2013-04-26 17:31:00,83.7,62.0,30.06,ESE,105,8.0,13.0,48,0.00,,,0.00,weatherlink.com 1.10,2013-04-26 21:31:00,
2013-04-26 17:46:00,83.1,63.0,30.06,ESE,108,7.0,12.0,50,0.00,,,0.00,weatherlink.com 1.10,2013-04-26 21:46:00,
2013-04-26 18:01:00,82.6,64.0,30.06,ENE,75,4.0,11.0,54,0.00,,,0.00,weatherlink.com 1.10,2013-04-26 22:01:00,
2013-04-26 18:22:00,81.7,65.0,30.07,ENE,78,10.0,13.0,57,0.00,,,0.00,weatherlink.com 1.10,2013-04-26 22:22:00,
2013-04-26 18:31:00,82.3,65.0,30.07,ENE,73,10.0,13.0,56,0.00,,,0.00,weatherlink.com 1.10,2013-04-26 22:31:00,
2013-04-26 18:48:00,81.0,65.0,30.07,SE,146,8.0,17.0,58,0.00,,,0.00,weatherlink.com 1.10,2013-04-26 22:48:00,
2013-04-26 19:02:00,80.3,65.0,30.08,SE,126,10.0,13.0,60,0.00,,,0.00,weatherlink.com 1.10,2013-04-26 23:02:00,
2013-04-26 19:17:00,79.9,64.0,30.08,East,86,13.0,13.0,59,0.00,,,0.00,weatherlink.com 1.10,2013-04-26 23:17:00,
2013-04-26 19:33:00,79.5,65.0,30.08,East,86,8.0,12.0,61,0.00,,,0.00,weatherlink.com 1.10,2013-04-26 23:33:00,
2013-04-26 19:47:00,78.8,65.0,30.08,ESE,117,13.0,15.0,63,0.00,,,0.00,weatherlink.com 1.10,2013-04-26 23:47:00,
2013-04-26 20:18:00,77.9,66.0,30.09,SE,125,3.0,9.0,66,0.00,,,0.00,weatherlink.com 1.10,2013-04-27 00:18:00,
2013-04-26 20:33:00,77.3,66.0,30.09,SE,133,5.0,12.0,68,0.00,,,0.00,weatherlink.com 1.10,2013-04-27 00:33:00,
2013-04-26 20:48:00,76.9,66.0,30.10,East,101,11.0,12.0,70,0.00,,,0.00,weatherlink.com 1.10,2013-04-27 00:48:00,
2013-04-26 21:03:00,76.6,66.0,30.10,ENE,68,8.0,12.0,70,0.00,,,0.00,weatherlink.com 1.10,2013-04-27 01:03:00,
2013-04-26 21:18:00,76.1,66.0,30.11,ESE,115,6.0,10.0,72,0.00,,,0.00,weatherlink.com 1.10,2013-04-27 01:18:00,
2013-04-26 21:33:00,75.7,67.0,30.12,ENE,63,6.0,13.0,74,0.00,,,0.00,weatherlink.com 1.10,2013-04-27 01:33:00,
2013-04-26 21:49:00,75.3,67.0,30.12,East,88,8.0,11.0,76,0.00,,,0.00,weatherlink.com 1.10,2013-04-27 01:49:00,
2013-04-26 22:04:00,74.9,67.0,30.13,ENE,71,4.0,9.0,77,0.00,,,0.00,weatherlink.com 1.10,2013-04-27 02:04:00,
2013-04-26 22:19:00,74.9,68.0,30.14,ENE,66,6.0,10.0,78,0.00,,,0.00,weatherlink.com 1.10,2013-04-27 02:19:00,
2013-04-26 22:34:00,74.7,68.0,30.14,ENE,64,6.0,11.0,79,0.00,,,0.00,weatherlink.com 1.10,2013-04-27 02:34:00,
2013-04-26 22:50:00,74.4,67.0,30.14,ENE,66,6.0,10.0,78,0.00,,,0.00,weatherlink.com 1.10,2013-04-27 02:50:00,
2013-04-26 23:04:00,74.3,67.0,30.14,ENE,66,8.0,8.0,79,0.00,,,0.00,weatherlink.com 1.10,2013-04-27 03:04:00,
2013-04-26 23:19:00,74.2,68.0,30.14,ENE,65,4.0,10.0,81,0.00,,,0.00,weatherlink.com 1.10,2013-04-27 03:19:00,
2013-04-26 23:34:00,73.9,67.0,30.14,ENE,65,4.0,8.0,80,0.00,,,0.00,weatherlink.com 1.10,2013-04-27 03:34:00,
2013-04-26 23:50:00,73.8,68.0,30.14,ENE,65,4.0,8.0,82,0.00,,,0.00,weatherlink.com 1.10,2013-04-27 03:50:00,